sensor_id;sensor_type;location;lat;lon;timestamp;P1;durP1;ratioP1;P2;durP2;ratioP2
68765;SDS011;55756;45.582;11.484;2024-03-17T00:00:30;80.18;;;50.42;;
68765;SDS011;55756;45.582;11.484;2024-03-17T00:02:57;76.72;;;51.15;;
68765;SDS011;55756;45.582;11.484;2024-03-17T00:05:22;77.38;;;52.22;;
68765;SDS011;55756;45.582;11.484;2024-03-17T00:07:48;80.45;;;50.13;;
68765;SDS011;55756;45.582;11.484;2024-03-17T00:10:14;76.90;;;52.50;;
68765;SDS011;55756;45.582;11.484;2024-03-17T00:12:40;80.43;;;51.20;;
68765;SDS011;55756;45.582;11.484;2024-03-17T00:15:06;79.20;;;50.60;;
68765;SDS011;55756;45.582;11.484;2024-03-17T00:17:32;85.43;;;51.28;;
68765;SDS011;55756;45.582;11.484;2024-03-17T00:20:00;64.95;;;53.58;;
68765;SDS011;55756;45.582;11.484;2024-03-17T00:22:29;73.82;;;51.35;;
68765;SDS011;55756;45.582;11.484;2024-03-17T00:24:55;74.90;;;52.35;;
68765;SDS011;55756;45.582;11.484;2024-03-17T00:27:21;76.18;;;52.28;;
68765;SDS011;55756;45.582;11.484;2024-03-17T00:29:47;64.78;;;53.00;;
68765;SDS011;55756;45.582;11.484;2024-03-17T00:32:12;73.47;;;50.67;;
68765;SDS011;55756;45.582;11.484;2024-03-17T00:34:39;79.40;;;51.35;;
68765;SDS011;55756;45.582;11.484;2024-03-17T00:37:05;79.00;;;49.90;;
68765;SDS011;55756;45.582;11.484;2024-03-17T00:39:30;76.50;;;50.70;;
68765;SDS011;55756;45.582;11.484;2024-03-17T00:41:57;73.78;;;51.50;;
68765;SDS011;55756;45.582;11.484;2024-03-17T00:44:23;79.07;;;51.22;;
68765;SDS011;55756;45.582;11.484;2024-03-17T00:46:49;73.10;;;49.97;;
68765;SDS011;55756;45.582;11.484;2024-03-17T00:49:14;74.82;;;51.28;;
68765;SDS011;55756;45.582;11.484;2024-03-17T00:51:40;76.75;;;49.65;;
68765;SDS011;55756;45.582;11.484;2024-03-17T00:54:07;80.45;;;50.60;;
68765;SDS011;55756;45.582;11.484;2024-03-17T00:56:33;78.75;;;50.53;;
68765;SDS011;55756;45.582;11.484;2024-03-17T00:58:59;74.45;;;50.55;;
68765;SDS011;55756;45.582;11.484;2024-03-17T01:01:24;71.32;;;49.85;;
68765;SDS011;55756;45.582;11.484;2024-03-17T01:03:50;77.18;;;51.22;;
68765;SDS011;55756;45.582;11.484;2024-03-17T01:06:16;79.05;;;50.67;;
68765;SDS011;55756;45.582;11.484;2024-03-17T01:08:41;76.75;;;51.03;;
68765;SDS011;55756;45.582;11.484;2024-03-17T01:11:13;88.20;;;50.95;;
68765;SDS011;55756;45.582;11.484;2024-03-17T01:13:40;76.80;;;48.70;;
68765;SDS011;55756;45.582;11.484;2024-03-17T01:16:06;78.18;;;50.22;;
68765;SDS011;55756;45.582;11.484;2024-03-17T01:18:32;78.72;;;49.35;;
68765;SDS011;55756;45.582;11.484;2024-03-17T01:20:59;67.85;;;47.53;;
68765;SDS011;55756;45.582;11.484;2024-03-17T01:23:25;78.30;;;50.05;;
68765;SDS011;55756;45.582;11.484;2024-03-17T01:25:51;70.47;;;49.58;;
68765;SDS011;55756;45.582;11.484;2024-03-17T01:28:17;74.55;;;49.25;;
68765;SDS011;55756;45.582;11.484;2024-03-17T01:30:42;70.88;;;48.83;;
68765;SDS011;55756;45.582;11.484;2024-03-17T01:33:08;73.38;;;48.05;;
68765;SDS011;55756;45.582;11.484;2024-03-17T01:35:34;71.45;;;49.38;;
68765;SDS011;55756;45.582;11.484;2024-03-17T01:38:00;75.57;;;49.40;;
68765;SDS011;55756;45.582;11.484;2024-03-17T01:40:26;74.88;;;50.20;;
68765;SDS011;55756;45.582;11.484;2024-03-17T01:42:52;77.22;;;49.70;;
68765;SDS011;55756;45.582;11.484;2024-03-17T01:45:20;78.65;;;48.90;;
68765;SDS011;55756;45.582;11.484;2024-03-17T01:47:53;71.95;;;49.15;;
68765;SDS011;55756;45.582;11.484;2024-03-17T01:50:19;75.05;;;48.75;;
68765;SDS011;55756;45.582;11.484;2024-03-17T01:53:00;73.97;;;49.67;;
68765;SDS011;55756;45.582;11.484;2024-03-17T01:55:30;82.40;;;49.28;;
68765;SDS011;55756;45.582;11.484;2024-03-17T01:57:57;70.85;;;47.88;;
68765;SDS011;55756;45.582;11.484;2024-03-17T02:00:23;71.60;;;48.53;;
68765;SDS011;55756;45.582;11.484;2024-03-17T02:02:50;80.78;;;47.40;;
68765;SDS011;55756;45.582;11.484;2024-03-17T02:05:16;75.22;;;48.13;;
68765;SDS011;55756;45.582;11.484;2024-03-17T02:07:42;68.65;;;47.83;;
68765;SDS011;55756;45.582;11.484;2024-03-17T02:10:08;77.88;;;47.65;;
68765;SDS011;55756;45.582;11.484;2024-03-17T02:12:34;70.82;;;48.08;;
68765;SDS011;55756;45.582;11.484;2024-03-17T02:15:01;68.05;;;46.90;;
68765;SDS011;55756;45.582;11.484;2024-03-17T02:17:31;73.93;;;46.95;;
68765;SDS011;55756;45.582;11.484;2024-03-17T02:19:57;73.53;;;47.80;;
68765;SDS011;55756;45.582;11.484;2024-03-17T02:22:23;67.65;;;46.10;;
68765;SDS011;55756;45.582;11.484;2024-03-17T02:24:49;75.57;;;47.83;;
68765;SDS011;55756;45.582;11.484;2024-03-17T02:27:14;82.47;;;48.05;;
68765;SDS011;55756;45.582;11.484;2024-03-17T02:29:40;78.07;;;47.63;;
68765;SDS011;55756;45.582;11.484;2024-03-17T02:32:06;71.10;;;47.20;;
68765;SDS011;55756;45.582;11.484;2024-03-17T02:34:33;72.50;;;48.40;;
68765;SDS011;55756;45.582;11.484;2024-03-17T02:37:02;73.68;;;46.80;;
68765;SDS011;55756;45.582;11.484;2024-03-17T02:39:29;75.28;;;46.33;;
68765;SDS011;55756;45.582;11.484;2024-03-17T02:42:05;74.13;;;46.42;;
68765;SDS011;55756;45.582;11.484;2024-03-17T02:44:33;77.15;;;47.45;;
68765;SDS011;55756;45.582;11.484;2024-03-17T02:47:00;71.30;;;46.67;;
68765;SDS011;55756;45.582;11.484;2024-03-17T02:49:27;67.07;;;47.28;;
68765;SDS011;55756;45.582;11.484;2024-03-17T02:52:00;73.80;;;46.17;;
68765;SDS011;55756;45.582;11.484;2024-03-17T02:54:26;66.43;;;45.55;;
68765;SDS011;55756;45.582;11.484;2024-03-17T02:56:52;69.45;;;43.88;;
68765;SDS011;55756;45.582;11.484;2024-03-17T02:59:18;66.57;;;43.53;;
68765;SDS011;55756;45.582;11.484;2024-03-17T03:01:43;71.47;;;45.20;;
68765;SDS011;55756;45.582;11.484;2024-03-17T03:04:10;71.25;;;45.10;;
68765;SDS011;55756;45.582;11.484;2024-03-17T03:06:36;73.75;;;46.95;;
68765;SDS011;55756;45.582;11.484;2024-03-17T03:09:03;75.10;;;47.33;;
68765;SDS011;55756;45.582;11.484;2024-03-17T03:11:35;73.40;;;46.13;;
68765;SDS011;55756;45.582;11.484;2024-03-17T03:14:01;78.53;;;46.33;;
68765;SDS011;55756;45.582;11.484;2024-03-17T03:16:27;70.30;;;46.25;;
68765;SDS011;55756;45.582;11.484;2024-03-17T03:18:53;80.05;;;47.15;;
68765;SDS011;55756;45.582;11.484;2024-03-17T03:21:19;76.88;;;49.13;;
68765;SDS011;55756;45.582;11.484;2024-03-17T03:23:46;78.15;;;49.50;;
68765;SDS011;55756;45.582;11.484;2024-03-17T03:26:12;75.38;;;47.10;;
68765;SDS011;55756;45.582;11.484;2024-03-17T03:28:38;73.55;;;48.55;;
68765;SDS011;55756;45.582;11.484;2024-03-17T03:31:04;78.32;;;49.78;;
68765;SDS011;55756;45.582;11.484;2024-03-17T03:33:30;75.55;;;49.80;;
68765;SDS011;55756;45.582;11.484;2024-03-17T03:35:56;83.45;;;49.72;;
68765;SDS011;55756;45.582;11.484;2024-03-17T03:38:22;83.63;;;51.63;;
68765;SDS011;55756;45.582;11.484;2024-03-17T03:40:48;80.55;;;50.55;;
68765;SDS011;55756;45.582;11.484;2024-03-17T03:43:14;81.45;;;50.17;;
68765;SDS011;55756;45.582;11.484;2024-03-17T03:45:40;77.10;;;48.65;;
68765;SDS011;55756;45.582;11.484;2024-03-17T03:48:06;80.05;;;50.28;;
68765;SDS011;55756;45.582;11.484;2024-03-17T03:50:35;72.45;;;46.88;;
68765;SDS011;55756;45.582;11.484;2024-03-17T03:53:03;72.90;;;47.25;;
68765;SDS011;55756;45.582;11.484;2024-03-17T03:55:30;70.88;;;46.75;;
68765;SDS011;55756;45.582;11.484;2024-03-17T03:57:56;74.10;;;47.33;;
68765;SDS011;55756;45.582;11.484;2024-03-17T04:00:21;74.18;;;46.80;;
68765;SDS011;55756;45.582;11.484;2024-03-17T04:02:49;71.43;;;46.58;;
68765;SDS011;55756;45.582;11.484;2024-03-17T04:05:17;72.43;;;45.92;;
68765;SDS011;55756;45.582;11.484;2024-03-17T04:07:43;71.85;;;46.05;;
68765;SDS011;55756;45.582;11.484;2024-03-17T04:10:11;70.53;;;45.60;;
68765;SDS011;55756;45.582;11.484;2024-03-17T04:12:38;75.30;;;46.08;;
68765;SDS011;55756;45.582;11.484;2024-03-17T04:15:04;68.93;;;45.45;;
68765;SDS011;55756;45.582;11.484;2024-03-17T04:17:31;75.30;;;46.10;;
68765;SDS011;55756;45.582;11.484;2024-03-17T04:19:58;72.97;;;46.95;;
68765;SDS011;55756;45.582;11.484;2024-03-17T04:22:23;76.53;;;48.30;;
68765;SDS011;55756;45.582;11.484;2024-03-17T04:24:50;75.13;;;48.55;;
68765;SDS011;55756;45.582;11.484;2024-03-17T04:27:20;71.32;;;47.13;;
68765;SDS011;55756;45.582;11.484;2024-03-17T04:29:46;72.43;;;48.83;;
68765;SDS011;55756;45.582;11.484;2024-03-17T04:32:13;80.68;;;51.15;;
68765;SDS011;55756;45.582;11.484;2024-03-17T04:34:39;77.30;;;49.00;;
68765;SDS011;55756;45.582;11.484;2024-03-17T04:37:05;77.85;;;50.45;;
68765;SDS011;55756;45.582;11.484;2024-03-17T04:39:31;74.90;;;47.58;;
68765;SDS011;55756;45.582;11.484;2024-03-17T04:41:57;81.03;;;51.22;;
68765;SDS011;55756;45.582;11.484;2024-03-17T04:44:22;77.65;;;49.85;;
68765;SDS011;55756;45.582;11.484;2024-03-17T04:46:48;78.13;;;49.13;;
68765;SDS011;55756;45.582;11.484;2024-03-17T04:49:14;81.35;;;50.05;;
68765;SDS011;55756;45.582;11.484;2024-03-17T04:51:40;73.78;;;49.33;;
68765;SDS011;55756;45.582;11.484;2024-03-17T04:54:05;84.10;;;51.22;;
68765;SDS011;55756;45.582;11.484;2024-03-17T04:56:32;77.82;;;51.10;;
68765;SDS011;55756;45.582;11.484;2024-03-17T04:58:58;80.45;;;49.78;;
68765;SDS011;55756;45.582;11.484;2024-03-17T05:01:24;83.57;;;51.55;;
68765;SDS011;55756;45.582;11.484;2024-03-17T05:03:53;77.35;;;50.90;;
68765;SDS011;55756;45.582;11.484;2024-03-17T05:08:44;84.80;;;50.15;;
68765;SDS011;55756;45.582;11.484;2024-03-17T05:11:10;80.70;;;49.33;;
68765;SDS011;55756;45.582;11.484;2024-03-17T05:13:37;78.15;;;49.05;;
68765;SDS011;55756;45.582;11.484;2024-03-17T05:16:03;80.78;;;49.65;;
68765;SDS011;55756;45.582;11.484;2024-03-17T05:18:30;80.75;;;50.10;;
68765;SDS011;55756;45.582;11.484;2024-03-17T05:21:04;78.53;;;47.03;;
68765;SDS011;55756;45.582;11.484;2024-03-17T05:23:32;70.22;;;46.25;;
68765;SDS011;55756;45.582;11.484;2024-03-17T05:26:00;79.20;;;46.58;;
68765;SDS011;55756;45.582;11.484;2024-03-17T05:28:26;72.07;;;45.65;;
68765;SDS011;55756;45.582;11.484;2024-03-17T05:30:53;70.32;;;46.15;;
68765;SDS011;55756;45.582;11.484;2024-03-17T05:33:19;72.78;;;46.15;;
68765;SDS011;55756;45.582;11.484;2024-03-17T05:35:55;74.10;;;45.45;;
68765;SDS011;55756;45.582;11.484;2024-03-17T05:38:22;66.68;;;45.83;;
68765;SDS011;55756;45.582;11.484;2024-03-17T05:40:59;68.07;;;44.53;;
68765;SDS011;55756;45.582;11.484;2024-03-17T05:43:30;69.22;;;43.95;;
68765;SDS011;55756;45.582;11.484;2024-03-17T05:45:58;69.85;;;44.72;;
68765;SDS011;55756;45.582;11.484;2024-03-17T05:48:26;69.70;;;44.23;;
68765;SDS011;55756;45.582;11.484;2024-03-17T05:50:52;71.47;;;45.47;;
68765;SDS011;55756;45.582;11.484;2024-03-17T05:53:18;72.63;;;43.83;;
68765;SDS011;55756;45.582;11.484;2024-03-17T05:55:45;71.40;;;45.88;;
68765;SDS011;55756;45.582;11.484;2024-03-17T05:58:11;74.68;;;44.55;;
68765;SDS011;55756;45.582;11.484;2024-03-17T06:00:37;70.72;;;44.95;;
68765;SDS011;55756;45.582;11.484;2024-03-17T06:03:04;70.05;;;44.75;;
68765;SDS011;55756;45.582;11.484;2024-03-17T06:05:38;71.00;;;45.33;;
68765;SDS011;55756;45.582;11.484;2024-03-17T06:08:08;76.63;;;45.15;;
68765;SDS011;55756;45.582;11.484;2024-03-17T06:10:34;81.30;;;48.25;;
68765;SDS011;55756;45.582;11.484;2024-03-17T06:13:02;78.57;;;47.67;;
68765;SDS011;55756;45.582;11.484;2024-03-17T06:15:28;76.38;;;47.72;;
68765;SDS011;55756;45.582;11.484;2024-03-17T06:17:54;75.30;;;46.22;;
68765;SDS011;55756;45.582;11.484;2024-03-17T06:20:21;77.65;;;47.53;;
68765;SDS011;55756;45.582;11.484;2024-03-17T06:22:48;76.07;;;47.53;;
68765;SDS011;55756;45.582;11.484;2024-03-17T06:25:14;76.72;;;47.90;;
68765;SDS011;55756;45.582;11.484;2024-03-17T06:27:40;80.53;;;50.13;;
68765;SDS011;55756;45.582;11.484;2024-03-17T06:30:10;78.43;;;48.90;;
68765;SDS011;55756;45.582;11.484;2024-03-17T06:32:43;79.68;;;48.90;;
68765;SDS011;55756;45.582;11.484;2024-03-17T06:35:12;77.13;;;48.13;;
68765;SDS011;55756;45.582;11.484;2024-03-17T06:37:43;85.57;;;48.53;;
68765;SDS011;55756;45.582;11.484;2024-03-17T06:40:10;77.78;;;49.95;;
68765;SDS011;55756;45.582;11.484;2024-03-17T06:42:38;79.88;;;49.70;;
68765;SDS011;55756;45.582;11.484;2024-03-17T06:45:05;78.53;;;49.10;;
68765;SDS011;55756;45.582;11.484;2024-03-17T06:47:33;77.10;;;48.28;;
68765;SDS011;55756;45.582;11.484;2024-03-17T06:50:02;78.43;;;49.10;;
68765;SDS011;55756;45.582;11.484;2024-03-17T06:52:29;77.30;;;49.50;;
68765;SDS011;55756;45.582;11.484;2024-03-17T06:54:56;82.43;;;51.17;;
68765;SDS011;55756;45.582;11.484;2024-03-17T06:57:23;81.38;;;51.13;;
68765;SDS011;55756;45.582;11.484;2024-03-17T06:59:49;78.93;;;51.40;;
68765;SDS011;55756;45.582;11.484;2024-03-17T07:02:16;80.47;;;50.65;;
68765;SDS011;55756;45.582;11.484;2024-03-17T07:04:46;78.00;;;50.17;;
68765;SDS011;55756;45.582;11.484;2024-03-17T07:07:13;78.30;;;50.60;;
68765;SDS011;55756;45.582;11.484;2024-03-17T07:09:39;81.13;;;49.97;;
68765;SDS011;55756;45.582;11.484;2024-03-17T07:12:09;88.50;;;53.65;;
68765;SDS011;55756;45.582;11.484;2024-03-17T07:14:36;87.75;;;53.55;;
68765;SDS011;55756;45.582;11.484;2024-03-17T07:17:02;81.25;;;52.40;;
68765;SDS011;55756;45.582;11.484;2024-03-17T07:19:29;88.35;;;52.10;;
68765;SDS011;55756;45.582;11.484;2024-03-17T07:21:56;81.45;;;52.33;;
68765;SDS011;55756;45.582;11.484;2024-03-17T07:24:22;90.75;;;54.50;;
68765;SDS011;55756;45.582;11.484;2024-03-17T07:26:49;87.10;;;54.58;;
68765;SDS011;55756;45.582;11.484;2024-03-17T07:29:15;88.13;;;53.70;;
68765;SDS011;55756;45.582;11.484;2024-03-17T07:31:41;86.75;;;53.13;;
68765;SDS011;55756;45.582;11.484;2024-03-17T07:34:07;83.70;;;53.40;;
68765;SDS011;55756;45.582;11.484;2024-03-17T07:36:32;88.80;;;54.63;;
68765;SDS011;55756;45.582;11.484;2024-03-17T07:38:58;86.70;;;57.40;;
68765;SDS011;55756;45.582;11.484;2024-03-17T07:41:24;88.00;;;56.33;;
68765;SDS011;55756;45.582;11.484;2024-03-17T07:43:50;91.32;;;57.08;;
68765;SDS011;55756;45.582;11.484;2024-03-17T07:46:16;87.57;;;55.92;;
68765;SDS011;55756;45.582;11.484;2024-03-17T07:49:01;92.68;;;56.25;;
68765;SDS011;55756;45.582;11.484;2024-03-17T07:51:27;93.00;;;57.45;;
68765;SDS011;55756;45.582;11.484;2024-03-17T07:53:53;91.80;;;55.80;;
68765;SDS011;55756;45.582;11.484;2024-03-17T07:56:18;91.18;;;58.65;;
68765;SDS011;55756;45.582;11.484;2024-03-17T07:58:45;90.32;;;58.13;;
68765;SDS011;55756;45.582;11.484;2024-03-17T08:01:11;93.78;;;57.53;;
68765;SDS011;55756;45.582;11.484;2024-03-17T08:03:39;85.80;;;56.05;;
68765;SDS011;55756;45.582;11.484;2024-03-17T08:06:09;88.00;;;54.78;;
68765;SDS011;55756;45.582;11.484;2024-03-17T08:08:38;85.32;;;55.78;;
68765;SDS011;55756;45.582;11.484;2024-03-17T08:11:04;82.63;;;52.58;;
68765;SDS011;55756;45.582;11.484;2024-03-17T08:13:30;76.68;;;50.97;;
68765;SDS011;55756;45.582;11.484;2024-03-17T08:16:00;82.32;;;53.72;;
68765;SDS011;55756;45.582;11.484;2024-03-17T08:18:27;81.13;;;51.25;;
68765;SDS011;55756;45.582;11.484;2024-03-17T08:20:53;81.50;;;50.35;;
68765;SDS011;55756;45.582;11.484;2024-03-17T08:23:19;80.50;;;51.35;;
68765;SDS011;55756;45.582;11.484;2024-03-17T08:28:19;79.03;;;50.70;;
68765;SDS011;55756;45.582;11.484;2024-03-17T08:30:55;83.70;;;50.95;;
68765;SDS011;55756;45.582;11.484;2024-03-17T08:33:22;71.13;;;45.92;;
68765;SDS011;55756;45.582;11.484;2024-03-17T08:38:24;63.92;;;43.20;;
68765;SDS011;55756;45.582;11.484;2024-03-17T08:40:51;65.63;;;41.38;;
68765;SDS011;55756;45.582;11.484;2024-03-17T08:43:18;68.97;;;42.85;;
68765;SDS011;55756;45.582;11.484;2024-03-17T08:45:44;64.53;;;40.25;;
68765;SDS011;55756;45.582;11.484;2024-03-17T08:48:10;65.45;;;41.63;;
68765;SDS011;55756;45.582;11.484;2024-03-17T08:50:36;69.20;;;41.80;;
68765;SDS011;55756;45.582;11.484;2024-03-17T08:53:02;62.10;;;40.17;;
68765;SDS011;55756;45.582;11.484;2024-03-17T08:55:28;65.63;;;41.10;;
68765;SDS011;55756;45.582;11.484;2024-03-17T08:57:54;65.97;;;40.53;;
68765;SDS011;55756;45.582;11.484;2024-03-17T09:00:20;67.05;;;42.97;;
68765;SDS011;55756;45.582;11.484;2024-03-17T09:02:45;63.90;;;43.42;;
68765;SDS011;55756;45.582;11.484;2024-03-17T09:05:11;70.10;;;43.92;;
68765;SDS011;55756;45.582;11.484;2024-03-17T09:10:05;69.85;;;42.60;;
68765;SDS011;55756;45.582;11.484;2024-03-17T09:12:31;66.65;;;42.42;;
68765;SDS011;55756;45.582;11.484;2024-03-17T09:14:57;59.47;;;40.75;;
68765;SDS011;55756;45.582;11.484;2024-03-17T09:17:23;63.70;;;39.58;;
68765;SDS011;55756;45.582;11.484;2024-03-17T09:19:48;56.22;;;39.83;;
68765;SDS011;55756;45.582;11.484;2024-03-17T09:22:14;61.45;;;37.60;;
68765;SDS011;55756;45.582;11.484;2024-03-17T09:24:40;58.13;;;38.38;;
68765;SDS011;55756;45.582;11.484;2024-03-17T09:27:06;60.22;;;38.72;;
68765;SDS011;55756;45.582;11.484;2024-03-17T09:29:31;51.25;;;38.83;;
68765;SDS011;55756;45.582;11.484;2024-03-17T09:31:58;58.97;;;38.42;;
68765;SDS011;55756;45.582;11.484;2024-03-17T09:34:24;46.63;;;39.38;;
68765;SDS011;55756;45.582;11.484;2024-03-17T09:36:50;53.97;;;37.80;;
68765;SDS011;55756;45.582;11.484;2024-03-17T09:39:16;52.45;;;36.95;;
68765;SDS011;55756;45.582;11.484;2024-03-17T09:41:41;57.78;;;38.05;;
68765;SDS011;55756;45.582;11.484;2024-03-17T09:44:11;57.35;;;37.78;;
68765;SDS011;55756;45.582;11.484;2024-03-17T09:46:40;51.75;;;37.53;;
68765;SDS011;55756;45.582;11.484;2024-03-17T09:49:13;56.58;;;38.65;;
68765;SDS011;55756;45.582;11.484;2024-03-17T09:51:41;52.25;;;37.78;;
68765;SDS011;55756;45.582;11.484;2024-03-17T09:54:18;55.72;;;39.00;;
68765;SDS011;55756;45.582;11.484;2024-03-17T09:56:44;54.25;;;38.58;;
68765;SDS011;55756;45.582;11.484;2024-03-17T09:59:11;52.45;;;39.05;;
68765;SDS011;55756;45.582;11.484;2024-03-17T10:01:37;53.53;;;38.85;;
68765;SDS011;55756;45.582;11.484;2024-03-17T10:04:03;52.75;;;39.08;;
68765;SDS011;55756;45.582;11.484;2024-03-17T10:06:35;53.80;;;37.80;;
68765;SDS011;55756;45.582;11.484;2024-03-17T10:09:10;54.88;;;40.05;;
68765;SDS011;55756;45.582;11.484;2024-03-17T10:11:46;56.60;;;37.88;;
68765;SDS011;55756;45.582;11.484;2024-03-17T10:14:12;57.65;;;38.15;;
68765;SDS011;55756;45.582;11.484;2024-03-17T10:16:42;56.17;;;39.45;;
68765;SDS011;55756;45.582;11.484;2024-03-17T10:19:10;57.47;;;38.10;;
68765;SDS011;55756;45.582;11.484;2024-03-17T10:21:38;53.22;;;39.20;;
68765;SDS011;55756;45.582;11.484;2024-03-17T10:24:05;56.00;;;39.13;;
68765;SDS011;55756;45.582;11.484;2024-03-17T10:32:05;58.03;;;41.03;;
68765;SDS011;55756;45.582;11.484;2024-03-17T10:34:38;58.03;;;41.08;;
68765;SDS011;55756;45.582;11.484;2024-03-17T10:37:08;57.30;;;42.47;;
68765;SDS011;55756;45.582;11.484;2024-03-17T10:39:50;65.20;;;41.17;;
68765;SDS011;55756;45.582;11.484;2024-03-17T10:42:22;62.47;;;42.35;;
68765;SDS011;55756;45.582;11.484;2024-03-17T10:45:01;61.08;;;41.92;;
68765;SDS011;55756;45.582;11.484;2024-03-17T10:47:32;59.35;;;41.65;;
68765;SDS011;55756;45.582;11.484;2024-03-17T10:49:59;60.10;;;41.45;;
68765;SDS011;55756;45.582;11.484;2024-03-17T10:52:29;64.07;;;40.80;;
68765;SDS011;55756;45.582;11.484;2024-03-17T10:54:59;61.40;;;41.67;;
68765;SDS011;55756;45.582;11.484;2024-03-17T11:00:10;58.97;;;41.47;;
68765;SDS011;55756;45.582;11.484;2024-03-17T11:02:42;61.45;;;43.05;;
68765;SDS011;55756;45.582;11.484;2024-03-17T11:05:24;60.88;;;43.50;;
68765;SDS011;55756;45.582;11.484;2024-03-17T11:07:55;61.83;;;41.92;;
68765;SDS011;55756;45.582;11.484;2024-03-17T11:10:26;57.22;;;42.80;;
68765;SDS011;55756;45.582;11.484;2024-03-17T11:12:58;66.50;;;42.05;;
68765;SDS011;55756;45.582;11.484;2024-03-17T11:20:35;63.90;;;42.10;;
68765;SDS011;55756;45.582;11.484;2024-03-17T11:23:05;63.67;;;43.20;;
68765;SDS011;55756;45.582;11.484;2024-03-17T11:38:57;59.08;;;43.28;;
68765;SDS011;55756;45.582;11.484;2024-03-17T11:41:37;60.90;;;43.47;;
68765;SDS011;55756;45.582;11.484;2024-03-17T11:44:13;59.72;;;42.92;;
68765;SDS011;55756;45.582;11.484;2024-03-17T11:46:39;60.30;;;43.70;;
68765;SDS011;55756;45.582;11.484;2024-03-17T11:49:11;66.57;;;42.50;;
68765;SDS011;55756;45.582;11.484;2024-03-17T11:51:49;66.13;;;42.08;;
68765;SDS011;55756;45.582;11.484;2024-03-17T11:54:20;48.85;;;42.17;;
68765;SDS011;55756;45.582;11.484;2024-03-17T11:56:50;63.05;;;41.97;;
68765;SDS011;55756;45.582;11.484;2024-03-17T11:59:17;63.88;;;39.92;;
68765;SDS011;55756;45.582;11.484;2024-03-17T12:01:48;58.83;;;40.05;;
68765;SDS011;55756;45.582;11.484;2024-03-17T12:04:15;51.75;;;40.78;;
68765;SDS011;55756;45.582;11.484;2024-03-17T12:06:49;51.78;;;38.63;;
68765;SDS011;55756;45.582;11.484;2024-03-17T12:09:22;55.42;;;40.47;;
68765;SDS011;55756;45.582;11.484;2024-03-17T12:14:24;44.45;;;38.15;;
68765;SDS011;55756;45.582;11.484;2024-03-17T12:16:57;52.75;;;36.30;;
68765;SDS011;55756;45.582;11.484;2024-03-17T12:19:28;51.35;;;36.58;;
68765;SDS011;55756;45.582;11.484;2024-03-17T12:21:54;45.78;;;37.03;;
68765;SDS011;55756;45.582;11.484;2024-03-17T12:24:21;52.63;;;37.30;;
68765;SDS011;55756;45.582;11.484;2024-03-17T12:26:49;52.75;;;36.15;;
68765;SDS011;55756;45.582;11.484;2024-03-17T12:29:58;52.80;;;38.78;;
68765;SDS011;55756;45.582;11.484;2024-03-17T12:32:06;48.90;;;39.05;;
68765;SDS011;55756;45.582;11.484;2024-03-17T12:34:36;51.90;;;37.17;;
68765;SDS011;55756;45.582;11.484;2024-03-17T12:37:02;49.97;;;36.92;;
68765;SDS011;55756;45.582;11.484;2024-03-17T12:39:29;49.47;;;36.20;;
68765;SDS011;55756;45.582;11.484;2024-03-17T12:44:30;45.15;;;35.88;;
68765;SDS011;55756;45.582;11.484;2024-03-17T12:47:00;42.75;;;37.03;;
68765;SDS011;55756;45.582;11.484;2024-03-17T12:49:27;52.38;;;35.53;;
68765;SDS011;55756;45.582;11.484;2024-03-17T12:51:54;47.13;;;36.08;;
68765;SDS011;55756;45.582;11.484;2024-03-17T12:54:21;42.17;;;36.75;;
68765;SDS011;55756;45.582;11.484;2024-03-17T12:56:50;42.15;;;30.13;;
68765;SDS011;55756;45.582;11.484;2024-03-17T12:59:38;38.55;;;33.50;;
68765;SDS011;55756;45.582;11.484;2024-03-17T13:02:23;48.70;;;31.80;;
68765;SDS011;55756;45.582;11.484;2024-03-17T13:07:46;42.70;;;36.33;;
68765;SDS011;55756;45.582;11.484;2024-03-17T13:10:12;43.92;;;37.58;;
68765;SDS011;55756;45.582;11.484;2024-03-17T13:12:39;51.13;;;35.47;;
68765;SDS011;55756;45.582;11.484;2024-03-17T13:15:08;49.00;;;34.33;;
68765;SDS011;55756;45.582;11.484;2024-03-17T13:17:35;41.08;;;35.30;;
68765;SDS011;55756;45.582;11.484;2024-03-17T13:20:01;44.92;;;35.80;;
68765;SDS011;55756;45.582;11.484;2024-03-17T13:22:27;39.78;;;33.60;;
68765;SDS011;55756;45.582;11.484;2024-03-17T13:24:53;49.75;;;34.58;;
68765;SDS011;55756;45.582;11.484;2024-03-17T13:27:19;40.10;;;35.15;;
68765;SDS011;55756;45.582;11.484;2024-03-17T13:29:48;37.42;;;31.80;;
68765;SDS011;55756;45.582;11.484;2024-03-17T13:32:14;40.97;;;32.30;;
68765;SDS011;55756;45.582;11.484;2024-03-17T13:34:40;42.83;;;32.42;;
68765;SDS011;55756;45.582;11.484;2024-03-17T13:37:06;39.17;;;32.97;;
68765;SDS011;55756;45.582;11.484;2024-03-17T13:39:32;37.75;;;32.60;;
68765;SDS011;55756;45.582;11.484;2024-03-17T13:41:59;41.97;;;29.85;;
68765;SDS011;55756;45.582;11.484;2024-03-17T13:44:31;35.40;;;31.08;;
68765;SDS011;55756;45.582;11.484;2024-03-17T13:46:57;39.42;;;28.55;;
68765;SDS011;55756;45.582;11.484;2024-03-17T13:49:24;32.55;;;28.27;;
68765;SDS011;55756;45.582;11.484;2024-03-17T13:51:51;35.72;;;29.08;;
68765;SDS011;55756;45.582;11.484;2024-03-17T13:54:17;36.45;;;31.13;;
68765;SDS011;55756;45.582;11.484;2024-03-17T13:56:46;34.92;;;24.70;;
68765;SDS011;55756;45.582;11.484;2024-03-17T13:59:15;37.00;;;26.73;;
68765;SDS011;55756;45.582;11.484;2024-03-17T14:01:42;34.33;;;24.50;;
68765;SDS011;55756;45.582;11.484;2024-03-17T14:04:15;24.33;;;19.13;;
68765;SDS011;55756;45.582;11.484;2024-03-17T14:06:43;24.98;;;20.95;;
68765;SDS011;55756;45.582;11.484;2024-03-17T14:09:09;32.10;;;19.63;;
68765;SDS011;55756;45.582;11.484;2024-03-17T14:11:35;20.80;;;16.50;;
68765;SDS011;55756;45.582;11.484;2024-03-17T14:14:02;27.38;;;17.60;;
68765;SDS011;55756;45.582;11.484;2024-03-17T14:16:31;21.40;;;17.27;;
68765;SDS011;55756;45.582;11.484;2024-03-17T14:18:58;18.52;;;15.23;;
68765;SDS011;55756;45.582;11.484;2024-03-17T14:21:24;19.98;;;15.70;;
68765;SDS011;55756;45.582;11.484;2024-03-17T14:23:50;21.92;;;15.55;;
68765;SDS011;55756;45.582;11.484;2024-03-17T14:26:16;19.27;;;15.10;;
68765;SDS011;55756;45.582;11.484;2024-03-17T14:28:41;19.55;;;14.63;;
68765;SDS011;55756;45.582;11.484;2024-03-17T14:31:07;16.75;;;13.73;;
68765;SDS011;55756;45.582;11.484;2024-03-17T14:33:33;17.38;;;13.52;;
68765;SDS011;55756;45.582;11.484;2024-03-17T14:35:59;19.52;;;13.45;;
68765;SDS011;55756;45.582;11.484;2024-03-17T14:38:25;18.67;;;13.23;;
68765;SDS011;55756;45.582;11.484;2024-03-17T14:40:51;19.45;;;14.23;;
68765;SDS011;55756;45.582;11.484;2024-03-17T14:43:17;15.50;;;12.60;;
68765;SDS011;55756;45.582;11.484;2024-03-17T14:45:43;18.17;;;14.05;;
68765;SDS011;55756;45.582;11.484;2024-03-17T14:48:08;18.38;;;12.25;;
68765;SDS011;55756;45.582;11.484;2024-03-17T14:50:35;19.38;;;14.30;;
68765;SDS011;55756;45.582;11.484;2024-03-17T14:53:01;18.40;;;14.00;;
68765;SDS011;55756;45.582;11.484;2024-03-17T14:55:27;20.73;;;13.82;;